sensor_id;sensor_type;location;lat;lon;timestamp;temperature;humidity
25718;DHT22;13574;52.040;5.692;2023-03-01T00:01:25;3.10;99.30
25718;DHT22;13574;52.040;5.692;2023-03-01T00:03:52;3.20;99.80
25718;DHT22;13574;52.040;5.692;2023-03-01T00:06:18;3.20;99.40
25718;DHT22;13574;52.040;5.692;2023-03-01T00:08:44;3.40;99.10
25718;DHT22;13574;52.040;5.692;2023-03-01T00:11:16;3.40;99.50
25718;DHT22;13574;52.040;5.692;2023-03-01T00:13:43;3.40;99.10
25718;DHT22;13574;52.040;5.692;2023-03-01T00:16:12;3.20;99.60
25718;DHT22;13574;52.040;5.692;2023-03-01T00:18:39;3.40;99.80
25718;DHT22;13574;52.040;5.692;2023-03-01T00:21:05;3.40;99.80
25718;DHT22;13574;52.040;5.692;2023-03-01T00:23:31;3.40;99.90
25718;DHT22;13574;52.040;5.692;2023-03-01T00:25:58;3.40;99.90
25718;DHT22;13574;52.040;5.692;2023-03-01T00:28:24;3.70;99.90
25718;DHT22;13574;52.040;5.692;2023-03-01T00:30:50;3.70;99.70
25718;DHT22;13574;52.040;5.692;2023-03-01T00:33:15;3.80;99.50
25718;DHT22;13574;52.040;5.692;2023-03-01T00:35:41;3.50;99.60
25718;DHT22;13574;52.040;5.692;2023-03-01T00:38:07;3.60;99.40
25718;DHT22;13574;52.040;5.692;2023-03-01T00:40:34;3.50;99.20
25718;DHT22;13574;52.040;5.692;2023-03-01T00:43:01;3.30;99.40
25718;DHT22;13574;52.040;5.692;2023-03-01T00:45:27;3.30;99.70
25718;DHT22;13574;52.040;5.692;2023-03-01T00:47:53;3.20;99.30
25718;DHT22;13574;52.040;5.692;2023-03-01T00:50:20;3.00;99.50
25718;DHT22;13574;52.040;5.692;2023-03-01T00:52:46;2.90;99.90
25718;DHT22;13574;52.040;5.692;2023-03-01T00:55:12;3.10;99.90
25718;DHT22;13574;52.040;5.692;2023-03-01T00:57:38;2.90;99.70
25718;DHT22;13574;52.040;5.692;2023-03-01T01:00:07;2.80;99.90
25718;DHT22;13574;52.040;5.692;2023-03-01T01:02:35;2.60;99.90
25718;DHT22;13574;52.040;5.692;2023-03-01T01:05:00;3.00;99.90
25718;DHT22;13574;52.040;5.692;2023-03-01T01:07:26;3.20;99.80
25718;DHT22;13574;52.040;5.692;2023-03-01T01:09:52;3.40;99.60
25718;DHT22;13574;52.040;5.692;2023-03-01T01:12:17;3.50;99.60
25718;DHT22;13574;52.040;5.692;2023-03-01T01:14:43;3.50;99.40
25718;DHT22;13574;52.040;5.692;2023-03-01T01:17:09;3.70;99.30
25718;DHT22;13574;52.040;5.692;2023-03-01T01:19:34;3.50;99.30
25718;DHT22;13574;52.040;5.692;2023-03-01T01:22:00;3.50;99.30
25718;DHT22;13574;52.040;5.692;2023-03-01T01:24:26;3.60;99.10
25718;DHT22;13574;52.040;5.692;2023-03-01T01:26:51;3.70;99.40
25718;DHT22;13574;52.040;5.692;2023-03-01T01:29:17;3.40;99.50
25718;DHT22;13574;52.040;5.692;2023-03-01T01:31:44;3.30;99.90
25718;DHT22;13574;52.040;5.692;2023-03-01T01:34:18;3.40;99.90
25718;DHT22;13574;52.040;5.692;2023-03-01T01:36:46;3.40;99.60
25718;DHT22;13574;52.040;5.692;2023-03-01T01:39:12;3.50;99.80
25718;DHT22;13574;52.040;5.692;2023-03-01T01:41:40;3.60;99.40
25718;DHT22;13574;52.040;5.692;2023-03-01T01:44:23;3.50;99.90
25718;DHT22;13574;52.040;5.692;2023-03-01T01:46:59;3.50;99.40
25718;DHT22;13574;52.040;5.692;2023-03-01T01:49:33;3.30;99.70
25718;DHT22;13574;52.040;5.692;2023-03-01T01:54:53;3.30;99.60
25718;DHT22;13574;52.040;5.692;2023-03-01T01:57:35;3.20;99.60
25718;DHT22;13574;52.040;5.692;2023-03-01T02:02:36;3.00;99.90
25718;DHT22;13574;52.040;5.692;2023-03-01T02:05:14;3.20;99.90
25718;DHT22;13574;52.040;5.692;2023-03-01T02:07:42;3.20;99.90
25718;DHT22;13574;52.040;5.692;2023-03-01T02:10:09;3.00;99.90
25718;DHT22;13574;52.040;5.692;2023-03-01T02:12:36;3.10;99.90
25718;DHT22;13574;52.040;5.692;2023-03-01T02:15:02;3.00;99.90
25718;DHT22;13574;52.040;5.692;2023-03-01T02:17:28;3.10;99.90
25718;DHT22;13574;52.040;5.692;2023-03-01T02:20:17;3.20;99.90
25718;DHT22;13574;52.040;5.692;2023-03-01T02:22:45;3.30;99.90
25718;DHT22;13574;52.040;5.692;2023-03-01T02:30:42;3.00;99.90
25718;DHT22;13574;52.040;5.692;2023-03-01T02:33:29;3.10;99.90
25718;DHT22;13574;52.040;5.692;2023-03-01T02:36:00;3.20;99.90
25718;DHT22;13574;52.040;5.692;2023-03-01T02:38:27;3.10;99.90
25718;DHT22;13574;52.040;5.692;2023-03-01T02:40:54;3.00;99.90
25718;DHT22;13574;52.040;5.692;2023-03-01T02:43:26;2.90;99.90
25718;DHT22;13574;52.040;5.692;2023-03-01T02:45:54;3.20;99.90
25718;DHT22;13574;52.040;5.692;2023-03-01T02:48:22;2.90;99.90
25718;DHT22;13574;52.040;5.692;2023-03-01T02:51:04;2.90;99.90
25718;DHT22;13574;52.040;5.692;2023-03-01T02:56:39;2.70;99.90
25718;DHT22;13574;52.040;5.692;2023-03-01T02:59:05;2.80;99.90
25718;DHT22;13574;52.040;5.692;2023-03-01T03:01:31;2.80;99.90
25718;DHT22;13574;52.040;5.692;2023-03-01T03:04:04;2.60;99.90
25718;DHT22;13574;52.040;5.692;2023-03-01T03:06:30;2.70;99.90
25718;DHT22;13574;52.040;5.692;2023-03-01T03:08:56;2.80;99.90
25718;DHT22;13574;52.040;5.692;2023-03-01T03:11:21;2.80;99.90
25718;DHT22;13574;52.040;5.692;2023-03-01T03:13:47;2.90;99.90
25718;DHT22;13574;52.040;5.692;2023-03-01T03:16:14;3.00;99.90
25718;DHT22;13574;52.040;5.692;2023-03-01T03:18:40;3.00;99.90
25718;DHT22;13574;52.040;5.692;2023-03-01T03:21:10;3.10;99.90
25718;DHT22;13574;52.040;5.692;2023-03-01T03:23:36;3.10;99.90
25718;DHT22;13574;52.040;5.692;2023-03-01T03:26:03;3.00;99.90
25718;DHT22;13574;52.040;5.692;2023-03-01T03:28:33;3.10;99.90
25718;DHT22;13574;52.040;5.692;2023-03-01T03:30:59;3.10;99.90
25718;DHT22;13574;52.040;5.692;2023-03-01T03:33:32;3.10;99.90
25718;DHT22;13574;52.040;5.692;2023-03-01T03:35:57;3.10;99.90
25718;DHT22;13574;52.040;5.692;2023-03-01T03:38:24;3.30;99.90
25718;DHT22;13574;52.040;5.692;2023-03-01T03:41:03;3.10;99.80
25718;DHT22;13574;52.040;5.692;2023-03-01T03:43:31;3.00;99.90
25718;DHT22;13574;52.040;5.692;2023-03-01T03:45:58;2.80;99.90
25718;DHT22;13574;52.040;5.692;2023-03-01T03:48:24;2.80;99.90
25718;DHT22;13574;52.040;5.692;2023-03-01T03:50:53;2.80;99.90
25718;DHT22;13574;52.040;5.692;2023-03-01T03:53:20;2.70;99.90
25718;DHT22;13574;52.040;5.692;2023-03-01T03:55:46;2.70;99.90
25718;DHT22;13574;52.040;5.692;2023-03-01T03:58:15;2.70;99.90
25718;DHT22;13574;52.040;5.692;2023-03-01T04:00:44;2.80;99.90
25718;DHT22;13574;52.040;5.692;2023-03-01T04:03:12;2.70;99.90
25718;DHT22;13574;52.040;5.692;2023-03-01T04:05:39;2.80;99.90
25718;DHT22;13574;52.040;5.692;2023-03-01T04:08:05;2.90;99.90
25718;DHT22;13574;52.040;5.692;2023-03-01T04:10:37;2.90;99.90
25718;DHT22;13574;52.040;5.692;2023-03-01T04:13:07;2.90;99.90
25718;DHT22;13574;52.040;5.692;2023-03-01T04:15:34;2.70;99.90
25718;DHT22;13574;52.040;5.692;2023-03-01T04:18:00;2.60;99.90
25718;DHT22;13574;52.040;5.692;2023-03-01T04:20:29;2.70;99.90
25718;DHT22;13574;52.040;5.692;2023-03-01T04:23:10;2.90;99.90
25718;DHT22;13574;52.040;5.692;2023-03-01T04:25:55;2.70;99.90
25718;DHT22;13574;52.040;5.692;2023-03-01T04:28:35;2.70;99.90
25718;DHT22;13574;52.040;5.692;2023-03-01T04:31:10;2.60;99.90
25718;DHT22;13574;52.040;5.692;2023-03-01T04:33:43;2.50;99.90
25718;DHT22;13574;52.040;5.692;2023-03-01T04:36:11;2.50;99.90
25718;DHT22;13574;52.040;5.692;2023-03-01T04:38:37;2.40;99.90
25718;DHT22;13574;52.040;5.692;2023-03-01T04:41:08;2.30;99.90
25718;DHT22;13574;52.040;5.692;2023-03-01T04:43:34;2.30;99.90
25718;DHT22;13574;52.040;5.692;2023-03-01T04:46:02;2.20;99.90
25718;DHT22;13574;52.040;5.692;2023-03-01T04:48:29;2.10;99.90
25718;DHT22;13574;52.040;5.692;2023-03-01T04:50:54;2.10;99.90
25718;DHT22;13574;52.040;5.692;2023-03-01T04:53:20;2.20;99.90
25718;DHT22;13574;52.040;5.692;2023-03-01T04:55:45;2.40;99.90
25718;DHT22;13574;52.040;5.692;2023-03-01T04:58:11;2.60;99.90
25718;DHT22;13574;52.040;5.692;2023-03-01T05:00:37;2.60;99.90
25718;DHT22;13574;52.040;5.692;2023-03-01T05:03:02;2.70;99.90
25718;DHT22;13574;52.040;5.692;2023-03-01T05:05:37;2.70;99.90
25718;DHT22;13574;52.040;5.692;2023-03-01T05:08:06;2.70;99.90
25718;DHT22;13574;52.040;5.692;2023-03-01T05:10:34;2.80;99.90
25718;DHT22;13574;52.040;5.692;2023-03-01T05:13:01;2.80;99.90
25718;DHT22;13574;52.040;5.692;2023-03-01T05:15:29;2.60;99.90
25718;DHT22;13574;52.040;5.692;2023-03-01T05:17:57;2.70;99.90
25718;DHT22;13574;52.040;5.692;2023-03-01T05:20:25;2.90;99.90
25718;DHT22;13574;52.040;5.692;2023-03-01T05:22:52;2.60;99.90
25718;DHT22;13574;52.040;5.692;2023-03-01T05:25:20;2.70;99.90
25718;DHT22;13574;52.040;5.692;2023-03-01T05:27:47;2.70;99.90
25718;DHT22;13574;52.040;5.692;2023-03-01T05:30:13;2.60;99.90
25718;DHT22;13574;52.040;5.692;2023-03-01T05:32:45;2.50;99.90
25718;DHT22;13574;52.040;5.692;2023-03-01T05:35:13;2.50;99.90
25718;DHT22;13574;52.040;5.692;2023-03-01T05:37:41;2.50;99.90
25718;DHT22;13574;52.040;5.692;2023-03-01T05:40:08;2.70;99.90
25718;DHT22;13574;52.040;5.692;2023-03-01T05:42:47;2.00;99.90
25718;DHT22;13574;52.040;5.692;2023-03-01T05:45:15;1.90;99.90
25718;DHT22;13574;52.040;5.692;2023-03-01T05:47:41;1.80;99.90
25718;DHT22;13574;52.040;5.692;2023-03-01T05:50:20;1.90;99.90
25718;DHT22;13574;52.040;5.692;2023-03-01T05:52:49;2.20;99.90
25718;DHT22;13574;52.040;5.692;2023-03-01T05:55:17;2.20;99.90
25718;DHT22;13574;52.040;5.692;2023-03-01T05:57:42;2.30;99.90
25718;DHT22;13574;52.040;5.692;2023-03-01T06:00:10;2.30;99.90
25718;DHT22;13574;52.040;5.692;2023-03-01T06:02:36;2.30;99.90
25718;DHT22;13574;52.040;5.692;2023-03-01T06:05:01;2.30;99.90
25718;DHT22;13574;52.040;5.692;2023-03-01T06:07:28;2.30;99.90
25718;DHT22;13574;52.040;5.692;2023-03-01T06:09:53;2.40;99.90
25718;DHT22;13574;52.040;5.692;2023-03-01T06:12:19;2.30;99.90
25718;DHT22;13574;52.040;5.692;2023-03-01T06:14:45;2.30;99.90
25718;DHT22;13574;52.040;5.692;2023-03-01T06:17:12;2.30;99.90
25718;DHT22;13574;52.040;5.692;2023-03-01T06:19:37;2.30;99.90
25718;DHT22;13574;52.040;5.692;2023-03-01T06:22:03;2.50;99.90
25718;DHT22;13574;52.040;5.692;2023-03-01T06:24:28;2.40;99.90
25718;DHT22;13574;52.040;5.692;2023-03-01T06:29:46;2.30;99.90
25718;DHT22;13574;52.040;5.692;2023-03-01T06:32:12;2.40;99.90
25718;DHT22;13574;52.040;5.692;2023-03-01T06:34:37;2.20;99.90
25718;DHT22;13574;52.040;5.692;2023-03-01T06:37:03;2.30;99.90
25718;DHT22;13574;52.040;5.692;2023-03-01T06:39:31;2.20;99.90
25718;DHT22;13574;52.040;5.692;2023-03-01T06:41:57;2.40;99.90
25718;DHT22;13574;52.040;5.692;2023-03-01T06:44:23;2.50;99.90
25718;DHT22;13574;52.040;5.692;2023-03-01T06:46:48;2.50;99.90
25718;DHT22;13574;52.040;5.692;2023-03-01T06:49:14;2.70;99.90
25718;DHT22;13574;52.040;5.692;2023-03-01T06:51:41;2.70;99.90
25718;DHT22;13574;52.040;5.692;2023-03-01T06:54:07;2.70;99.90
25718;DHT22;13574;52.040;5.692;2023-03-01T06:56:33;2.50;99.90
25718;DHT22;13574;52.040;5.692;2023-03-01T06:58:59;2.70;99.90
25718;DHT22;13574;52.040;5.692;2023-03-01T07:01:25;2.70;99.90
25718;DHT22;13574;52.040;5.692;2023-03-01T07:03:51;2.80;99.90
25718;DHT22;13574;52.040;5.692;2023-03-01T07:06:16;2.90;99.90
25718;DHT22;13574;52.040;5.692;2023-03-01T07:08:43;2.80;99.90
25718;DHT22;13574;52.040;5.692;2023-03-01T07:11:08;2.80;99.90
25718;DHT22;13574;52.040;5.692;2023-03-01T07:13:34;2.90;99.90
25718;DHT22;13574;52.040;5.692;2023-03-01T07:16:02;3.00;99.90
25718;DHT22;13574;52.040;5.692;2023-03-01T07:18:28;3.00;99.90
25718;DHT22;13574;52.040;5.692;2023-03-01T07:20:54;2.90;99.90
25718;DHT22;13574;52.040;5.692;2023-03-01T07:23:19;3.00;99.90
25718;DHT22;13574;52.040;5.692;2023-03-01T07:25:51;3.00;99.90
25718;DHT22;13574;52.040;5.692;2023-03-01T07:28:17;3.00;99.90
25718;DHT22;13574;52.040;5.692;2023-03-01T07:30:43;2.80;99.90
25718;DHT22;13574;52.040;5.692;2023-03-01T07:33:08;2.80;99.90
25718;DHT22;13574;52.040;5.692;2023-03-01T07:35:34;3.00;99.90
25718;DHT22;13574;52.040;5.692;2023-03-01T07:37:59;3.10;99.90
25718;DHT22;13574;52.040;5.692;2023-03-01T07:40:25;3.10;99.90
25718;DHT22;13574;52.040;5.692;2023-03-01T07:42:58;3.20;99.90
25718;DHT22;13574;52.040;5.692;2023-03-01T07:45:25;3.40;99.90
25718;DHT22;13574;52.040;5.692;2023-03-01T07:47:51;3.30;99.90
25718;DHT22;13574;52.040;5.692;2023-03-01T07:50:17;3.20;99.90
25718;DHT22;13574;52.040;5.692;2023-03-01T07:56:02;3.60;99.90
25718;DHT22;13574;52.040;5.692;2023-03-01T07:58:28;4.00;99.90
25718;DHT22;13574;52.040;5.692;2023-03-01T08:00:54;4.00;99.90
25718;DHT22;13574;52.040;5.692;2023-03-01T08:03:20;3.90;99.90
25718;DHT22;13574;52.040;5.692;2023-03-01T08:05:45;3.70;99.90
25718;DHT22;13574;52.040;5.692;2023-03-01T08:08:11;3.80;99.90
25718;DHT22;13574;52.040;5.692;2023-03-01T08:10:36;4.00;99.90
25718;DHT22;13574;52.040;5.692;2023-03-01T08:13:02;4.00;99.90
25718;DHT22;13574;52.040;5.692;2023-03-01T08:15:28;4.40;99.90
25718;DHT22;13574;52.040;5.692;2023-03-01T08:17:53;4.50;99.90
25718;DHT22;13574;52.040;5.692;2023-03-01T08:20:19;4.50;99.90
25718;DHT22;13574;52.040;5.692;2023-03-01T08:22:45;4.60;99.90
25718;DHT22;13574;52.040;5.692;2023-03-01T08:25:10;4.50;99.90
25718;DHT22;13574;52.040;5.692;2023-03-01T08:27:36;4.70;99.90
25718;DHT22;13574;52.040;5.692;2023-03-01T08:30:02;4.70;99.90
25718;DHT22;13574;52.040;5.692;2023-03-01T08:32:28;4.80;99.90
25718;DHT22;13574;52.040;5.692;2023-03-01T08:34:53;4.90;99.90
25718;DHT22;13574;52.040;5.692;2023-03-01T08:37:19;5.10;99.90
25718;DHT22;13574;52.040;5.692;2023-03-01T08:39:46;5.20;99.90
25718;DHT22;13574;52.040;5.692;2023-03-01T08:42:11;5.20;99.90
25718;DHT22;13574;52.040;5.692;2023-03-01T08:44:37;5.30;99.90
25718;DHT22;13574;52.040;5.692;2023-03-01T08:47:03;5.10;99.90
25718;DHT22;13574;52.040;5.692;2023-03-01T08:49:30;5.10;99.90
25718;DHT22;13574;52.040;5.692;2023-03-01T08:51:57;5.20;99.90
25718;DHT22;13574;52.040;5.692;2023-03-01T08:54:25;5.30;99.90
25718;DHT22;13574;52.040;5.692;2023-03-01T08:56:50;4.80;99.90
25718;DHT22;13574;52.040;5.692;2023-03-01T08:59:17;5.20;99.90
25718;DHT22;13574;52.040;5.692;2023-03-01T09:01:42;5.10;99.90
25718;DHT22;13574;52.040;5.692;2023-03-01T09:04:12;5.30;99.90
25718;DHT22;13574;52.040;5.692;2023-03-01T09:06:38;5.40;99.90
25718;DHT22;13574;52.040;5.692;2023-03-01T09:09:05;5.40;99.70
25718;DHT22;13574;52.040;5.692;2023-03-01T09:11:43;5.10;99.90
25718;DHT22;13574;52.040;5.692;2023-03-01T09:14:09;5.00;99.90
25718;DHT22;13574;52.040;5.692;2023-03-01T09:16:34;5.10;99.90
25718;DHT22;13574;52.040;5.692;2023-03-01T09:19:02;5.30;99.90
25718;DHT22;13574;52.040;5.692;2023-03-01T09:21:28;5.30;99.90
25718;DHT22;13574;52.040;5.692;2023-03-01T09:23:56;5.60;99.90
25718;DHT22;13574;52.040;5.692;2023-03-01T09:26:23;5.70;99.80
25718;DHT22;13574;52.040;5.692;2023-03-01T09:28:50;5.90;99.60
25718;DHT22;13574;52.040;5.692;2023-03-01T09:31:18;5.80;99.60
25718;DHT22;13574;52.040;5.692;2023-03-01T09:33:46;6.00;99.60
25718;DHT22;13574;52.040;5.692;2023-03-01T09:36:15;5.40;99.90
25718;DHT22;13574;52.040;5.692;2023-03-01T09:38:41;5.80;99.90
25718;DHT22;13574;52.040;5.692;2023-03-01T09:43:52;5.90;99.10
25718;DHT22;13574;52.040;5.692;2023-03-01T09:46:22;6.20;98.30
25718;DHT22;13574;52.040;5.692;2023-03-01T09:48:51;6.40;97.70
25718;DHT22;13574;52.040;5.692;2023-03-01T09:51:26;6.50;97.80
25718;DHT22;13574;52.040;5.692;2023-03-01T09:53:52;6.40;97.40
25718;DHT22;13574;52.040;5.692;2023-03-01T09:56:24;6.20;97.30
25718;DHT22;13574;52.040;5.692;2023-03-01T09:59:03;6.10;97.00
25718;DHT22;13574;52.040;5.692;2023-03-01T10:01:56;6.10;97.10
25718;DHT22;13574;52.040;5.692;2023-03-01T10:07:11;6.00;97.40
25718;DHT22;13574;52.040;5.692;2023-03-01T10:09:41;6.10;96.80
25718;DHT22;13574;52.040;5.692;2023-03-01T10:12:18;6.10;96.60
25718;DHT22;13574;52.040;5.692;2023-03-01T10:14:59;6.10;96.40
25718;DHT22;13574;52.040;5.692;2023-03-01T10:17:46;5.90;96.40
25718;DHT22;13574;52.040;5.692;2023-03-01T10:20:17;6.00;96.20
25718;DHT22;13574;52.040;5.692;2023-03-01T10:22:43;6.00;95.90
25718;DHT22;13574;52.040;5.692;2023-03-01T10:25:15;5.90;96.40
25718;DHT22;13574;52.040;5.692;2023-03-01T10:27:53;6.20;95.90
25718;DHT22;13574;52.040;5.692;2023-03-01T10:32:57;6.50;95.50
25718;DHT22;13574;52.040;5.692;2023-03-01T10:35:29;6.70;95.50
25718;DHT22;13574;52.040;5.692;2023-03-01T10:38:02;6.60;95.30
25718;DHT22;13574;52.040;5.692;2023-03-01T10:40:28;6.80;95.00
25718;DHT22;13574;52.040;5.692;2023-03-01T10:42:57;7.00;94.80
25718;DHT22;13574;52.040;5.692;2023-03-01T10:48:15;6.80;94.50
25718;DHT22;13574;52.040;5.692;2023-03-01T10:50:46;7.10;95.50
25718;DHT22;13574;52.040;5.692;2023-03-01T10:53:40;7.20;94.50
25718;DHT22;13574;52.040;5.692;2023-03-01T10:56:09;7.10;94.70
25718;DHT22;13574;52.040;5.692;2023-03-01T10:58:37;7.40;94.40
25718;DHT22;13574;52.040;5.692;2023-03-01T11:01:23;7.40;94.10
25718;DHT22;13574;52.040;5.692;2023-03-01T11:06:30;7.40;94.60
25718;DHT22;13574;52.040;5.692;2023-03-01T11:08:56;7.20;94.50
25718;DHT22;13574;52.040;5.692;2023-03-01T11:11:31;7.50;94.60
25718;DHT22;13574;52.040;5.692;2023-03-01T11:16:45;7.30;94.20
25718;DHT22;13574;52.040;5.692;2023-03-01T11:24:17;7.60;93.90
25718;DHT22;13574;52.040;5.692;2023-03-01T11:26:52;7.90;93.50
25718;DHT22;13574;52.040;5.692;2023-03-01T11:29:31;8.10;93.30
25718;DHT22;13574;52.040;5.692;2023-03-01T11:32:01;7.80;93.40
25718;DHT22;13574;52.040;5.692;2023-03-01T11:37:32;7.90;93.30
25718;DHT22;13574;52.040;5.692;2023-03-01T11:42:59;7.10;94.10
25718;DHT22;13574;52.040;5.692;2023-03-01T11:45:34;7.40;93.20
25718;DHT22;13574;52.040;5.692;2023-03-01T11:48:31;7.40;93.50
25718;DHT22;13574;52.040;5.692;2023-03-01T11:51:07;7.70;93.40
25718;DHT22;13574;52.040;5.692;2023-03-01T11:54:09;7.60;93.20
25718;DHT22;13574;52.040;5.692;2023-03-01T11:56:50;7.70;93.50
25718;DHT22;13574;52.040;5.692;2023-03-01T11:59:50;7.40;93.70
25718;DHT22;13574;52.040;5.692;2023-03-01T12:02:27;7.40;93.20
25718;DHT22;13574;52.040;5.692;2023-03-01T12:10:40;8.10;92.80
25718;DHT22;13574;52.040;5.692;2023-03-01T12:13:23;8.10;92.60
25718;DHT22;13574;52.040;5.692;2023-03-01T12:26:25;8.10;91.90
25718;DHT22;13574;52.040;5.692;2023-03-01T12:40:20;7.90;93.10
25718;DHT22;13574;52.040;5.692;2023-03-01T12:43:32;7.60;93.20
25718;DHT22;13574;52.040;5.692;2023-03-01T12:46:23;7.60;93.60
25718;DHT22;13574;52.040;5.692;2023-03-01T12:49:10;7.30;92.70
25718;DHT22;13574;52.040;5.692;2023-03-01T12:51:38;7.60;93.00
25718;DHT22;13574;52.040;5.692;2023-03-01T12:54:14;7.80;91.90
25718;DHT22;13574;52.040;5.692;2023-03-01T12:56:41;8.00;91.90
25718;DHT22;13574;52.040;5.692;2023-03-01T12:59:23;8.50;92.00
25718;DHT22;13574;52.040;5.692;2023-03-01T13:07:44;8.60;91.90
25718;DHT22;13574;52.040;5.692;2023-03-01T13:10:39;8.70;91.90
25718;DHT22;13574;52.040;5.692;2023-03-01T13:13:23;8.70;92.30
25718;DHT22;13574;52.040;5.692;2023-03-01T13:15:50;8.80;92.30
25718;DHT22;13574;52.040;5.692;2023-03-01T13:20:48;8.60;91.30
25718;DHT22;13574;52.040;5.692;2023-03-01T13:26:16;8.70;91.50
25718;DHT22;13574;52.040;5.692;2023-03-01T13:33:46;8.20;92.00
25718;DHT22;13574;52.040;5.692;2023-03-01T13:41:51;8.90;91.50
25718;DHT22;13574;52.040;5.692;2023-03-01T13:46:44;9.00;92.00
25718;DHT22;13574;52.040;5.692;2023-03-01T13:49:16;8.60;91.40
25718;DHT22;13574;52.040;5.692;2023-03-01T13:51:46;8.50;92.20
25718;DHT22;13574;52.040;5.692;2023-03-01T13:54:15;8.90;92.20
25718;DHT22;13574;52.040;5.692;2023-03-01T13:56:41;8.70;92.00
25718;DHT22;13574;52.040;5.692;2023-03-01T13:59:14;8.70;92.00
25718;DHT22;13574;52.040;5.692;2023-03-01T14:01:40;8.70;92.30
25718;DHT22;13574;52.040;5.692;2023-03-01T14:04:29;9.00;92.40
25718;DHT22;13574;52.040;5.692;2023-03-01T14:07:32;9.00;91.90
25718;DHT22;13574;52.040;5.692;2023-03-01T14:10:01;8.90;91.70
25718;DHT22;13574;52.040;5.692;2023-03-01T14:20:38;8.90;90.70
25718;DHT22;13574;52.040;5.692;2023-03-01T14:23:11;8.70;91.20
25718;DHT22;13574;52.040;5.692;2023-03-01T14:25:38;8.90;91.20
25718;DHT22;13574;52.040;5.692;2023-03-01T14:28:28;9.40;91.10
25718;DHT22;13574;52.040;5.692;2023-03-01T14:30:58;9.60;90.90
25718;DHT22;13574;52.040;5.692;2023-03-01T14:33:30;9.80;90.30
25718;DHT22;13574;52.040;5.692;2023-03-01T14:36:13;9.90;90.40
25718;DHT22;13574;52.040;5.692;2023-03-01T14:38:41;9.70;88.70
25718;DHT22;13574;52.040;5.692;2023-03-01T14:41:18;9.40;90.10
25718;DHT22;13574;52.040;5.692;2023-03-01T14:46:41;9.30;90.10
25718;DHT22;13574;52.040;5.692;2023-03-01T14:51:43;9.00;90.40
25718;DHT22;13574;52.040;5.692;2023-03-01T14:54:42;8.90;90.50
25718;DHT22;13574;52.040;5.692;2023-03-01T14:57:18;8.80;90.10
25718;DHT22;13574;52.040;5.692;2023-03-01T14:59:44;8.80;90.70
25718;DHT22;13574;52.040;5.692;2023-03-01T15:02:17;8.80;91.10
25718;DHT22;13574;52.040;5.692;2023-03-01T15:04:48;9.10;91.20
25718;DHT22;13574;52.040;5.692;2023-03-01T15:07:18;9.00;91.40
25718;DHT22;13574;52.040;5.692;2023-03-01T15:09:45;9.10;90.60
25718;DHT22;13574;52.040;5.692;2023-03-01T15:14:56;9.00;90.40
25718;DHT22;13574;52.040;5.692;2023-03-01T15:17:36;9.40;89.80
25718;DHT22;13574;52.040;5.692;2023-03-01T15:20:06;9.40;88.90
25718;DHT22;13574;52.040;5.692;2023-03-01T15:22:43;9.10;89.30
25718;DHT22;13574;52.040;5.692;2023-03-01T15:25:18;8.70;90.20
25718;DHT22;13574;52.040;5.692;2023-03-01T15:27:49;8.80;90.30
25718;DHT22;13574;52.040;5.692;2023-03-01T15:30:24;9.20;90.30
25718;DHT22;13574;52.040;5.692;2023-03-01T15:35:53;9.20;90.40
25718;DHT22;13574;52.040;5.692;2023-03-01T15:40:55;9.20;90.30
25718;DHT22;13574;52.040;5.692;2023-03-01T15:43:43;9.20;90.60
25718;DHT22;13574;52.040;5.692;2023-03-01T15:46:22;9.30;90.30
25718;DHT22;13574;52.040;5.692;2023-03-01T15:48:54;9.50;90.40
25718;DHT22;13574;52.040;5.692;2023-03-01T15:51:32;9.20;90.50
25718;DHT22;13574;52.040;5.692;2023-03-01T15:54:01;9.20;90.60
25718;DHT22;13574;52.040;5.692;2023-03-01T15:56:27;9.00;90.30
25718;DHT22;13574;52.040;5.692;2023-03-01T15:58:53;9.00;90.60
25718;DHT22;13574;52.040;5.692;2023-03-01T16:01:22;9.20;90.60
25718;DHT22;13574;52.040;5.692;2023-03-01T16:03:47;9.50;90.40
25718;DHT22;13574;52.040;5.692;2023-03-01T16:06:13;9.50;90.60
25718;DHT22;13574;52.040;5.692;2023-03-01T16:08:39;9.70;90.50
25718;DHT22;13574;52.040;5.692;2023-03-01T16:11:14;9.20;90.80
25718;DHT22;13574;52.040;5.692;2023-03-01T16:13:40;9.40;90.80
25718;DHT22;13574;52.040;5.692;2023-03-01T16:16:05;9.60;90.90
25718;DHT22;13574;52.040;5.692;2023-03-01T16:18:31;9.40;90.70
25718;DHT22;13574;52.040;5.692;2023-03-01T16:20:57;9.30;91.00
25718;DHT22;13574;52.040;5.692;2023-03-01T16:23:22;9.00;90.80
25718;DHT22;13574;52.040;5.692;2023-03-01T16:25:50;8.90;90.90
25718;DHT22;13574;52.040;5.692;2023-03-01T16:28:16;9.00;91.40
25718;DHT22;13574;52.040;5.692;2023-03-01T16:30:46;9.10;91.20
25718;DHT22;13574;52.040;5.692;2023-03-01T16:33:12;9.30;91.10
25718;DHT22;13574;52.040;5.692;2023-03-01T16:35:41;9.10;91.40
25718;DHT22;13574;52.040;5.692;2023-03-01T16:38:07;9.30;91.40
25718;DHT22;13574;52.040;5.692;2023-03-01T16:40:32;9.20;91.40
25718;DHT22;13574;52.040;5.692;2023-03-01T16:43:00;9.30;91.50
25718;DHT22;13574;52.040;5.692;2023-03-01T16:45:34;9.00;92.10
25718;DHT22;13574;52.040;5.692;2023-03-01T16:48:01;8.90;92.30
25718;DHT22;13574;52.040;5.692;2023-03-01T16:50:27;8.60;92.90
25718;DHT22;13574;52.040;5.692;2023-03-01T16:52:53;8.70;92.90
25718;DHT22;13574;52.040;5.692;2023-03-01T16:55:19;8.70;92.90
25718;DHT22;13574;52.040;5.692;2023-03-01T16:57:45;8.20;93.40
25718;DHT22;13574;52.040;5.692;2023-03-01T17:00:12;8.30;93.60
25718;DHT22;13574;52.040;5.692;2023-03-01T17:02:39;8.20;93.60
25718;DHT22;13574;52.040;5.692;2023-03-01T17:05:07;8.40;93.80
25718;DHT22;13574;52.040;5.692;2023-03-01T17:07:33;8.40;93.70
25718;DHT22;13574;52.040;5.692;2023-03-01T17:10:05;8.50;93.60
25718;DHT22;13574;52.040;5.692;2023-03-01T17:12:31;8.30;94.00
25718;DHT22;13574;52.040;5.692;2023-03-01T17:14:58;8.30;94.10
25718;DHT22;13574;52.040;5.692;2023-03-01T17:17:23;8.50;93.90
25718;DHT22;13574;52.040;5.692;2023-03-01T17:19:49;8.40;93.70
25718;DHT22;13574;52.040;5.692;2023-03-01T17:22:15;8.40;93.60
25718;DHT22;13574;52.040;5.692;2023-03-01T17:24:42;8.20;93.80
25718;DHT22;13574;52.040;5.692;2023-03-01T17:27:10;8.20;94.00
25718;DHT22;13574;52.040;5.692;2023-03-01T17:29:36;8.00;93.90
25718;DHT22;13574;52.040;5.692;2023-03-01T17:32:05;8.10;94.20
25718;DHT22;13574;52.040;5.692;2023-03-01T17:34:34;8.10;94.20
25718;DHT22;13574;52.040;5.692;2023-03-01T17:37:00;8.10;94.20
25718;DHT22;13574;52.040;5.692;2023-03-01T17:39:26;7.90;94.40
25718;DHT22;13574;52.040;5.692;2023-03-01T17:41:56;7.90;94.30
25718;DHT22;13574;52.040;5.692;2023-03-01T17:44:22;8.00;94.30
25718;DHT22;13574;52.040;5.692;2023-03-01T17:46:47;8.00;94.20
25718;DHT22;13574;52.040;5.692;2023-03-01T17:49:13;7.90;94.30
25718;DHT22;13574;52.040;5.692;2023-03-01T17:51:57;7.80;94.70
25718;DHT22;13574;52.040;5.692;2023-03-01T17:54:23;7.50;94.60
25718;DHT22;13574;52.040;5.692;2023-03-01T17:56:49;7.40;95.10
25718;DHT22;13574;52.040;5.692;2023-03-01T17:59:14;7.50;94.90
25718;DHT22;13574;52.040;5.692;2023-03-01T18:01:42;7.80;94.50